Time;durP1;ratioP1;P1;durP2;ratioP2;P2;SDS_P1;SDS_P2;PMS_P1;PMS_P2;Temp;Humidity;BMP_temperature;BMP_pressure;BME280_temperature;BME280_humidity;BME280_pressure;Samples;Min_cycle;Max_cycle;Signal;HPM_P1;HPM_P2
2022/02/12 00:01:20;;;;;;;20.90;6.60;;;;;;;1.74;69.35;99865.73;106152;1274;97927;-75
2022/02/12 00:03:48;;;;;;;14.50;5.50;;;;;;;1.75;69.47;99872.54;106186;1275;107698;-77
2022/02/12 00:06:16;;;;;;;18.10;5.90;;;;;;;1.74;69.40;99880.44;106054;1274;97970;-77
2022/02/12 00:08:46;;;;;;;18.00;5.80;;;;;;;1.71;69.50;99883.12;106108;1274;98004;-75
2022/02/12 00:11:14;;;;;;;19.60;6.60;;;;;;;1.69;69.38;99885.96;106077;1274;112138;-76
2022/02/12 00:13:45;;;;;;;16.80;5.30;;;;;;;1.67;69.44;99887.42;106054;1274;98495;-74
2022/02/12 00:16:13;;;;;;;14.40;5.10;;;;;;;1.65;69.48;99892.35;106021;1274;107654;-75
2022/02/12 00:18:41;;;;;;;18.50;6.00;;;;;;;1.66;69.27;99898.45;106026;1274;97961;-77
2022/02/12 00:21:09;;;;;;;14.70;5.30;;;;;;;1.68;69.47;99905.39;106116;1274;97914;-76
2022/02/12 00:23:37;;;;;;;17.20;5.90;;;;;;;1.71;69.55;99907.09;106019;1275;111353;-78
2022/02/12 00:26:11;;;;;;;17.30;5.60;;;;;;;1.73;69.50;99910.89;106061;1274;95288;-77
2022/02/12 00:28:39;;;;;;;16.90;5.80;;;;;;;1.76;69.59;99906.61;106180;1274;106512;-76
2022/02/12 00:31:10;;;;;;;19.60;7.10;;;;;;;1.80;69.34;99906.20;106081;1274;95191;-78
2022/02/12 00:33:40;;;;;;;19.30;6.00;;;;;;;1.82;69.53;99908.60;106035;1276;96987;-76
2022/02/12 00:36:08;;;;;;;19.20;6.60;;;;;;;1.82;69.45;99910.52;106057;1274;113217;-76
2022/02/12 00:38:40;;;;;;;18.80;6.30;;;;;;;1.82;69.75;99910.50;106136;1274;97862;-75
2022/02/12 00:41:07;;;;;;;16.60;6.00;;;;;;;1.82;69.56;99908.58;106054;1276;107773;-77
2022/02/12 00:43:37;;;;;;;17.80;6.30;;;;;;;1.82;69.43;99919.61;106132;1274;97922;-78
2022/02/12 00:46:08;;;;;;;16.00;6.50;;;;;;;1.80;69.26;99925.23;106144;1274;97901;-77
2022/02/12 00:48:39;;;;;;;16.60;6.30;;;;;;;1.82;69.56;99935.02;106061;1274;110635;-77
2022/02/12 00:51:07;;;;;;;17.60;6.70;;;;;;;1.81;69.50;99936.06;106106;1274;97941;-76
2022/02/12 00:53:35;;;;;;;19.70;6.20;;;;;;;1.82;69.56;99938.14;106008;1274;107761;-75
2022/02/12 00:56:03;;;;;;;20.80;6.80;;;;;;;1.85;69.62;99948.20;106113;1274;97998;-75
2022/02/12 00:58:30;;;;;;;19.60;7.30;;;;;;;1.85;69.64;99944.36;106095;1274;97897;-75
2022/02/12 01:00:58;;;;;;;17.70;6.80;;;;;;;1.85;69.60;99948.73;106051;1276;111400;-76
2022/02/12 01:03:26;;;;;;;19.60;7.00;;;;;;;1.84;69.53;99954.01;106181;1274;97936;-74
2022/02/12 01:05:54;;;;;;;21.00;7.70;;;;;;;1.83;69.58;99953.52;106128;1274;107806;-76
2022/02/12 01:08:22;;;;;;;22.60;7.90;;;;;;;1.85;69.68;99958.54;106027;1275;98049;-75
2022/02/12 01:10:49;;;;;;;23.80;7.50;;;;;;;1.90;69.74;99956.67;106165;1274;97959;-75
2022/02/12 01:13:17;;;;;;;21.40;8.40;;;;;;;1.92;69.51;99962.05;106067;1274;111485;-78
2022/02/12 01:15:45;;;;;;;21.70;8.20;;;;;;;1.92;69.67;99961.52;106084;1276;95253;-75
2022/02/12 01:18:18;;;;;;;23.00;8.00;;;;;;;1.90;69.49;99961.38;106167;1274;107757;-77
2022/02/12 01:20:46;;;;;;;22.20;9.10;;;;;;;1.91;69.68;99959.96;106084;1276;95266;-74
2022/02/12 01:23:14;;;;;;;22.60;8.50;;;;;;;1.94;69.78;99961.13;106066;1274;98055;-75
2022/02/12 01:25:44;;;;;;;20.40;8.00;;;;;;;1.96;69.96;99961.42;106067;1274;111537;-75
2022/02/12 01:28:12;;;;;;;21.80;8.10;;;;;;;2.00;70.18;99965.20;105971;1274;98052;-76
2022/02/12 01:30:40;;;;;;;18.70;7.70;;;;;;;2.01;69.62;99967.27;106019;1274;106928;-74
2022/02/12 01:33:07;;;;;;;21.80;7.80;;;;;;;1.97;70.05;99968.78;106050;1274;97900;-74
2022/02/12 01:35:35;;;;;;;25.90;9.70;;;;;;;1.93;69.77;99962.55;106052;1274;97865;-75
2022/02/12 01:38:03;;;;;;;25.80;8.30;;;;;;;1.91;69.52;99970.63;106054;1276;109873;-75
2022/02/12 01:40:35;;;;;;;21.40;8.30;;;;;;;1.91;69.72;99973.43;106018;1274;97894;-75
2022/02/12 01:43:07;;;;;;;23.60;8.50;;;;;;;1.94;69.71;99975.30;106055;1274;107784;-75
2022/02/12 01:45:36;;;;;;;24.50;9.30;;;;;;;1.95;69.85;99976.86;105977;1276;96266;-73
2022/02/12 01:48:04;;;;;;;21.70;7.90;;;;;;;1.96;70.22;99981.38;106096;1274;97872;-74
2022/02/12 01:50:35;;;;;;;25.20;9.60;;;;;;;1.93;69.82;99983.36;106067;1274;111315;-73
2022/02/12 01:53:03;;;;;;;21.70;9.20;;;;;;;1.88;70.22;99987.14;106080;1274;95298;-73
2022/02/12 01:55:35;;;;;;;23.80;9.20;;;;;;;1.85;69.83;99987.04;106084;1274;107655;-74
2022/02/12 01:58:06;;;;;;;21.50;9.20;;;;;;;1.83;70.29;99989.01;106002;1274;97995;-75
2022/02/12 02:00:39;;;;;;;22.80;9.70;;;;;;;1.83;69.97;99988.13;106074;1274;97857;-75
2022/02/12 02:03:15;;;;;;;26.50;10.90;;;;;;;1.85;70.18;99982.31;106025;1274;111577;-74
2022/02/12 02:05:47;;;;;;;21.20;8.90;;;;;;;1.86;70.10;99982.47;105998;1276;97496;-75
2022/02/12 02:08:14;;;;;;;23.70;10.40;;;;;;;1.88;70.20;99982.59;106029;1274;107576;-75
2022/02/12 02:10:46;;;;;;;25.90;12.30;;;;;;;1.86;70.19;99985.27;106046;1274;97859;-77
2022/02/12 02:13:25;;;;;;;26.70;11.20;;;;;;;1.86;70.17;99983.52;106120;1274;97957;-72
2022/02/12 02:15:57;;;;;;;26.00;10.00;;;;;;;1.86;69.97;99979.49;106133;1275;111174;-75
2022/02/12 02:18:26;;;;;;;24.60;9.70;;;;;;;1.87;70.27;99981.23;106150;1276;96498;-73
2022/02/12 02:20:53;;;;;;;25.40;9.60;;;;;;;1.85;70.45;99989.66;106149;1276;107551;-71
2022/02/12 02:23:22;;;;;;;27.40;11.70;;;;;;;1.82;70.03;99990.08;106165;1276;97931;-75
2022/02/12 02:25:50;;;;;;;30.10;12.30;;;;;;;1.86;70.13;99978.96;106130;1276;97874;-76
2022/02/12 02:28:18;;;;;;;27.30;12.80;;;;;;;1.92;70.41;99980.59;106149;1275;111525;-76
2022/02/12 02:30:45;;;;;;;32.50;12.20;;;;;;;1.97;70.41;99988.52;106148;1274;97929;-75
2022/02/12 02:33:13;;;;;;;24.30;11.60;;;;;;;2.04;70.43;99992.73;106021;1274;107720;-74
2022/02/12 02:35:42;;;;;;;27.90;12.70;;;;;;;2.05;70.31;100001.63;106011;1274;95317;-74
2022/02/12 02:38:17;;;;;;;26.00;11.70;;;;;;;2.03;70.21;100009.73;106041;1274;97856;-74
2022/02/12 02:40:45;;;;;;;24.00;10.20;;;;;;;2.01;70.58;100008.92;106000;1274;110173;-74
2022/02/12 02:43:13;;;;;;;26.20;11.00;;;;;;;1.98;70.69;99998.83;106050;1275;95569;-76
2022/02/12 02:45:40;;;;;;;26.40;11.20;;;;;;;1.99;70.72;100009.48;106008;1274;107616;-75
2022/02/12 02:48:08;;;;;;;22.70;9.30;;;;;;;1.99;70.45;100004.41;106008;1276;98144;-76
2022/02/12 02:56:17;;;;;;;30.00;12.00;;;;;;;2.01;70.31;100015.91;106030;1274;95249;-75
2022/02/12 02:58:53;;;;;;;24.60;11.10;;;;;;;2.00;70.64;100019.27;106024;1274;107806;-76
2022/02/12 03:01:27;;;;;;;25.00;10.80;;;;;;;2.00;70.65;100017.87;105988;1274;97883;-77
2022/02/12 03:03:58;;;;;;;27.10;11.50;;;;;;;2.02;70.88;100017.29;106005;1274;97856;-77
2022/02/12 03:06:30;;;;;;;26.40;11.30;;;;;;;2.01;70.86;100024.65;105979;1276;111435;-75
2022/02/12 03:09:02;;;;;;;26.90;11.50;;;;;;;1.98;70.45;100025.08;105997;1274;97883;-75
2022/02/12 03:11:29;;;;;;;32.60;11.60;;;;;;;2.00;70.92;100034.84;105999;1274;107670;-75
2022/02/12 03:13:57;;;;;;;25.80;9.50;;;;;;;1.98;70.59;100035.39;106000;1274;97880;-75
2022/02/12 03:16:25;;;;;;;29.70;11.50;;;;;;;1.96;70.99;100034.73;106038;1276;96295;-74
2022/02/12 03:19:00;;;;;;;25.50;11.40;;;;;;;1.90;71.02;100041.84;106032;1274;111526;-75
2022/02/12 03:21:27;;;;;;;26.20;10.20;;;;;;;1.88;70.53;100046.80;106021;1274;97907;-76
2022/02/12 03:23:55;;;;;;;24.10;10.50;;;;;;;1.87;70.69;100051.20;105948;1276;106708;-74
2022/02/12 03:26:23;;;;;;;25.40;12.20;;;;;;;1.85;70.91;100056.46;106120;1274;95557;-75
2022/02/12 03:28:58;;;;;;;24.90;11.20;;;;;;;1.88;70.90;100060.97;106239;1274;97868;-76
2022/02/12 03:31:25;;;;;;;28.30;11.80;;;;;;;1.90;70.72;100068.10;106070;1276;111517;-76
2022/02/12 03:33:53;;;;;;;25.40;12.90;;;;;;;1.93;70.81;100070.66;103442;1276;3390451;-76
2022/02/12 03:36:21;;;;;;;26.90;11.90;;;;;;;1.95;70.78;100076.73;106037;1274;98089;-75
2022/02/12 03:38:50;;;;;;;26.30;11.90;;;;;;;1.93;70.71;100089.02;106040;1274;97878;-76
2022/02/12 03:41:18;;;;;;;26.20;10.10;;;;;;;1.90;70.99;100094.14;106130;1274;97861;-76
2022/02/12 03:43:46;;;;;;;25.50;10.30;;;;;;;1.86;70.48;100102.10;106158;1276;111360;-76
2022/02/12 03:46:18;;;;;;;23.00;9.30;;;;;;;1.82;70.46;100100.95;106134;1276;97975;-77
2022/02/12 03:48:46;;;;;;;24.60;10.50;;;;;;;1.78;70.72;100107.70;106157;1276;105945;-74
2022/02/12 03:51:17;;;;;;;19.90;7.60;;;;;;;1.72;70.44;100105.89;106068;1276;97957;-74
2022/02/12 03:53:49;;;;;;;18.10;7.00;;;;;;;1.65;70.39;100112.48;106027;1276;98107;-74
2022/02/12 03:56:20;;;;;;;20.10;7.20;;;;;;;1.59;70.60;100124.49;106012;1276;111208;-75
2022/02/12 03:58:51;;;;;;;18.40;6.60;;;;;;;1.54;70.68;100137.87;106027;1276;98442;-75
2022/02/12 04:01:19;;;;;;;17.00;5.80;;;;;;;1.48;70.54;100136.23;106054;1274;107701;-75
2022/02/12 04:03:48;;;;;;;15.90;4.90;;;;;;;1.41;70.51;100138.80;106037;1274;95319;-75
2022/02/12 04:06:20;;;;;;;14.20;5.10;;;;;;;1.37;70.67;100148.31;106056;1274;95267;-75
2022/02/12 04:08:48;;;;;;;13.90;4.80;;;;;;;1.33;70.52;100152.39;106073;1274;111295;-75
2022/02/12 04:11:17;;;;;;;14.40;5.50;;;;;;;1.32;70.54;100157.66;106076;1274;97706;-76
2022/02/12 04:13:47;;;;;;;14.30;4.80;;;;;;;1.29;70.62;100161.38;105941;1276;108687;-76
2022/02/12 04:16:15;;;;;;;15.00;4.70;;;;;;;1.24;70.58;100163.38;105938;1276;97770;-76
2022/02/12 04:18:43;;;;;;;13.00;5.30;;;;;;;1.19;70.53;100170.98;105919;1276;97946;-76
2022/02/12 04:21:14;;;;;;;16.80;6.90;;;;;;;1.16;70.62;100179.42;105920;1276;111215;-75
2022/02/12 04:23:43;;;;;;;14.00;5.20;;;;;;;1.12;70.60;100175.11;105926;1276;97995;-74
2022/02/12 04:26:14;;;;;;;14.70;4.90;;;;;;;1.09;70.62;100178.64;105947;1276;106482;-75
2022/02/12 04:28:43;;;;;;;13.80;4.50;;;;;;;1.06;70.39;100183.41;105962;1276;97923;-75
2022/02/12 04:31:11;;;;;;;14.50;4.70;;;;;;;1.00;70.44;100193.30;105947;1276;97956;-75
2022/02/12 04:33:43;;;;;;;13.00;4.70;;;;;;;0.93;70.44;100191.64;105981;1276;111374;-74
2022/02/12 04:36:13;;;;;;;11.80;4.50;;;;;;;0.87;70.41;100196.98;105957;1276;97332;-76
2022/02/12 04:38:45;;;;;;;12.90;3.80;;;;;;;0.82;70.37;100203.31;106024;1276;107766;-76
2022/02/12 04:41:12;;;;;;;12.50;4.30;;;;;;;0.80;70.40;100207.21;106011;1276;98082;-76
2022/02/12 04:44:01;;;;;;;14.60;5.10;;;;;;;0.78;70.40;100207.77;106015;1276;97879;-75
2022/02/12 04:46:34;;;;;;;15.20;4.90;;;;;;;0.79;70.41;100214.05;106029;1276;111318;-76
2022/02/12 04:49:05;;;;;;;15.80;5.00;;;;;;;0.76;70.19;100215.83;105984;1276;95220;-75
2022/02/12 04:51:33;;;;;;;16.60;5.70;;;;;;;0.69;70.27;100221.67;105897;1273;107713;-74
2022/02/12 04:54:04;;;;;;;14.60;5.60;;;;;;;0.65;70.47;100227.31;105969;1275;97872;-74
2022/02/12 04:56:34;;;;;;;16.00;5.40;;;;;;;0.61;70.34;100226.84;106022;1276;97890;-75
2022/02/12 04:59:05;;;;;;;16.50;4.90;;;;;;;0.57;70.39;100233.54;105927;1276;111491;-74
2022/02/12 05:01:37;;;;;;;15.60;4.60;;;;;;;0.53;70.30;100236.90;105975;1276;97912;-76
2022/02/12 05:04:08;;;;;;;13.00;4.30;;;;;;;0.50;70.28;100239.72;106007;1276;107722;-75
2022/02/12 05:06:40;;;;;;;13.20;4.80;;;;;;;0.48;70.46;100248.13;105918;1276;95397;-76
2022/02/12 05:09:08;;;;;;;16.30;4.50;;;;;;;0.50;70.36;100248.27;106014;1276;97841;-76
2022/02/12 05:11:39;;;;;;;13.90;5.20;;;;;;;0.50;70.21;100258.76;105999;1276;111377;-74
2022/02/12 05:14:10;;;;;;;17.40;5.30;;;;;;;0.50;70.38;100266.78;106072;1274;97857;-75
2022/02/12 05:16:39;;;;;;;18.20;5.40;;;;;;;0.48;70.45;100270.98;106025;1274;107809;-73
2022/02/12 05:19:07;;;;;;;14.90;5.50;;;;;;;0.46;70.36;100278.52;106104;1274;97866;-73
2022/02/12 05:21:40;;;;;;;14.80;5.90;;;;;;;0.42;70.34;100284.84;106098;1274;96579;-74
2022/02/12 05:24:08;;;;;;;15.20;5.30;;;;;;;0.38;70.29;100290.31;106121;1274;111388;-73
2022/02/12 05:26:39;;;;;;;16.60;5.00;;;;;;;0.36;70.27;100292.25;106078;1274;97871;-74
2022/02/12 05:29:07;;;;;;;14.50;4.70;;;;;;;0.37;70.30;100295.90;106072;1274;107614;-75
2022/02/12 05:31:36;;;;;;;13.60;4.50;;;;;;;0.36;70.23;100301.66;106145;1274;98564;-74
2022/02/12 05:34:07;;;;;;;10.70;3.90;;;;;;;0.37;70.28;100304.62;106047;1274;95277;-75
2022/02/12 05:36:35;;;;;;;11.50;4.30;;;;;;;0.38;70.26;100309.50;106120;1274;111407;-76
2022/02/12 05:39:03;;;;;;;13.00;4.30;;;;;;;0.39;70.40;100314.21;106136;1274;97837;-75
2022/02/12 05:41:34;;;;;;;15.00;4.90;;;;;;;0.40;70.32;100314.71;106093;1274;107612;-77
2022/02/12 05:44:05;;;;;;;13.30;5.30;;;;;;;0.40;70.34;100307.73;106045;1276;96977;-76
2022/02/12 05:46:37;;;;;;;15.10;4.80;;;;;;;0.38;70.25;100318.59;105957;1275;95414;-78
2022/02/12 05:49:09;;;;;;;14.70;4.60;;;;;;;0.34;70.31;100322.64;106009;1274;111325;-76
2022/02/12 05:51:36;;;;;;;11.10;4.00;;;;;;;0.33;70.34;100329.97;106018;1275;97931;-77
2022/02/12 05:54:05;;;;;;;11.30;3.80;;;;;;;0.33;70.19;100333.10;106062;1274;108695;-75
2022/02/12 05:56:37;;;;;;;13.10;4.30;;;;;;;0.32;70.18;100337.65;106021;1275;98586;-75
2022/02/12 05:59:08;;;;;;;10.80;4.20;;;;;;;0.29;70.25;100341.17;106176;1274;95319;-75
2022/02/12 06:01:43;;;;;;;14.20;5.10;;;;;;;0.27;70.19;100349.21;106072;1274;111229;-74
2022/02/12 06:04:11;;;;;;;13.00;4.70;;;;;;;0.24;70.09;100350.13;106105;1275;98098;-76
2022/02/12 06:06:38;;;;;;;14.50;4.20;;;;;;;0.21;70.24;100352.60;106108;1274;107504;-75
2022/02/12 06:09:06;;;;;;;12.70;4.90;;;;;;;0.19;70.07;100362.55;106096;1274;97959;-75
2022/02/12 06:11:34;;;;;;;10.20;5.10;;;;;;;0.18;70.15;100369.38;106125;1274;97857;-75
2022/02/12 06:14:02;;;;;;;15.60;4.70;;;;;;;0.16;70.18;100373.93;106121;1275;111302;-72
2022/02/12 06:16:30;;;;;;;17.60;5.20;;;;;;;0.18;70.09;100380.70;106082;1274;95291;-74
2022/02/12 06:18:58;;;;;;;14.50;4.80;;;;;;;0.21;70.16;100389.58;106066;1274;107543;-73
2022/02/12 06:21:26;;;;;;;13.80;4.70;;;;;;;0.20;70.13;100386.28;106051;1275;97966;-74
2022/02/12 06:23:56;;;;;;;16.60;5.90;;;;;;;0.18;70.12;100390.14;106086;1274;97989;-74
2022/02/12 06:26:25;;;;;;;19.00;5.40;;;;;;;0.17;70.13;100395.02;106040;1275;111306;-73
2022/02/12 06:28:52;;;;;;;16.60;5.20;;;;;;;0.21;70.29;100401.95;106178;1276;95366;-74
2022/02/12 06:31:20;;;;;;;16.80;5.50;;;;;;;0.20;70.21;100405.98;106034;1276;107385;-74
2022/02/12 06:33:48;;;;;;;12.90;4.50;;;;;;;0.21;70.26;100406.33;106046;1274;97909;-76
2022/02/12 06:36:16;;;;;;;15.90;5.10;;;;;;;0.22;70.20;100411.20;106112;1275;97944;-75
2022/02/12 06:38:44;;;;;;;16.90;4.60;;;;;;;0.26;70.22;100418.31;106022;1276;111531;-76
2022/02/12 06:41:11;;;;;;;16.90;5.70;;;;;;;0.31;70.28;100420.73;106094;1275;97966;-76
2022/02/12 06:43:39;;;;;;;17.00;5.90;;;;;;;0.35;70.31;100425.94;105781;1274;109283;-77
2022/02/12 06:46:09;;;;;;;15.00;5.20;;;;;;;0.37;70.16;100434.29;106119;1274;97077;-76
2022/02/12 06:48:37;;;;;;;14.70;5.00;;;;;;;0.35;70.15;100442.16;106406;1276;97877;-76
2022/02/12 06:51:05;;;;;;;14.00;5.30;;;;;;;0.34;70.23;100444.08;106097;1274;110725;-76
2022/02/12 06:53:33;;;;;;;15.20;6.00;;;;;;;0.34;70.19;100449.33;106207;1274;97937;-75
2022/02/12 06:56:04;;;;;;;16.00;6.20;;;;;;;0.32;70.11;100457.89;106122;1274;107841;-76
2022/02/12 06:58:32;;;;;;;13.30;4.90;;;;;;;0.29;70.10;100466.98;106125;1274;95983;-72
2022/02/12 07:01:00;;;;;;;14.30;5.30;;;;;;;0.27;70.07;100473.63;106154;1274;97961;-76
2022/02/12 07:03:27;;;;;;;13.70;4.20;;;;;;;0.27;70.06;100474.32;106112;1276;111367;-78
2022/02/12 07:05:55;;;;;;;19.30;6.40;;;;;;;0.27;70.20;100480.77;106156;1276;95202;-79
2022/02/12 07:08:23;;;;;;;18.80;6.30;;;;;;;0.28;69.86;100489.15;106015;1274;107690;-78
2022/02/12 07:10:51;;;;;;;19.80;7.10;;;;;;;0.25;70.04;100495.80;106003;1276;97742;-79
2022/02/12 07:13:19;;;;;;;20.50;6.80;;;;;;;0.26;70.12;100497.19;106037;1276;97914;-77
2022/02/12 07:15:47;;;;;;;18.70;6.30;;;;;;;0.25;70.23;100504.00;105995;1276;111397;-76
2022/02/12 07:18:24;;;;;;;18.80;6.80;;;;;;;0.30;70.37;100505.01;106002;1276;98093;-74
2022/02/12 07:20:52;;;;;;;13.80;5.10;;;;;;;0.34;70.25;100511.62;105924;1276;107713;-76
2022/02/12 07:23:20;;;;;;;16.40;4.70;;;;;;;0.35;70.20;100518.77;105958;1276;97977;-76
2022/02/12 07:25:48;;;;;;;13.10;4.50;;;;;;;0.37;70.13;100520.48;106008;1276;97882;-76
2022/02/12 07:28:19;;;;;;;16.00;5.20;;;;;;;0.39;70.12;100525.36;106153;1276;112166;-77
2022/02/12 07:30:49;;;;;;;13.80;4.60;;;;;;;0.42;70.00;100524.98;105991;1276;98800;-76
2022/02/12 07:33:17;;;;;;;14.50;5.00;;;;;;;0.44;69.94;100529.86;106073;1276;107649;-79
2022/02/12 07:35:45;;;;;;;15.80;5.40;;;;;;;0.48;70.01;100528.97;106118;1276;97992;-73
2022/02/12 07:38:13;;;;;;;16.10;5.60;;;;;;;0.50;70.18;100538.71;105967;1276;95270;-77
2022/02/12 07:40:40;;;;;;;14.30;4.60;;;;;;;0.53;70.05;100544.81;105982;1276;111253;-78
2022/02/12 07:43:08;;;;;;;16.00;5.30;;;;;;;0.57;70.21;100548.27;106141;1276;97321;-74
2022/02/12 07:45:40;;;;;;;17.70;6.40;;;;;;;0.74;70.77;100552.50;105859;1276;106721;-74
2022/02/12 07:48:08;;;;;;;17.20;5.60;;;;;;;0.86;70.52;100554.66;105893;1276;95458;-77
2022/02/12 07:50:36;;;;;;;18.40;4.90;;;;;;;0.88;70.17;100553.77;106028;1276;97977;-77
2022/02/12 07:53:04;;;;;;;17.90;5.00;;;;;;;0.84;70.02;100561.13;105984;1274;109708;-76
2022/02/12 07:55:35;;;;;;;15.60;5.40;;;;;;;0.80;69.97;100565.89;105902;1276;95362;-73
2022/02/12 07:58:02;;;;;;;16.90;5.30;;;;;;;0.76;70.02;100570.29;105914;1276;107691;-75
2022/02/12 08:00:30;;;;;;;16.70;4.90;;;;;;;0.73;70.08;100584.98;105982;1274;96004;-76
2022/02/12 08:03:02;;;;;;;12.90;4.80;;;;;;;0.73;70.00;100587.95;105954;1274;97864;-74
2022/02/12 08:05:31;;;;;;;17.40;5.20;;;;;;;0.69;69.86;100589.20;105787;1277;111015;-78
2022/02/12 08:08:04;;;;;;;12.20;4.80;;;;;;;0.65;69.93;100589.05;105954;1275;97863;-76
2022/02/12 08:13:18;;;;;;;10.80;4.60;;;;;;;0.72;70.26;100601.58;105866;1276;95337;-79
2022/02/12 08:15:46;;;;;;;10.40;3.60;;;;;;;0.76;70.09;100604.36;105930;1276;95854;-73
2022/02/12 08:18:14;;;;;;;11.30;3.60;;;;;;;0.79;69.89;100607.46;105913;1275;111359;-76
2022/02/12 08:20:41;;;;;;;10.00;3.00;;;;;;;0.81;70.03;100613.73;105948;1276;98589;-75
2022/02/12 08:23:09;;;;;;;7.90;3.50;;;;;;;0.83;70.04;100614.59;106007;1276;108174;-74
2022/02/12 08:25:38;;;;;;;11.30;4.00;;;;;;;0.88;70.16;100621.19;105973;1276;98036;-77
2022/02/12 08:28:06;;;;;;;9.50;4.00;;;;;;;0.95;70.30;100629.70;106005;1276;97893;-76
2022/02/12 08:30:33;;;;;;;13.90;4.20;;;;;;;0.99;69.98;100629.14;105992;1276;112385;-75
2022/02/12 08:33:01;;;;;;;18.10;3.70;;;;;;;1.04;70.26;100626.98;106006;1276;97874;-74
2022/02/12 08:35:49;;;;;;;13.40;4.10;;;;;;;1.14;70.31;100634.95;105846;1276;107724;-75
2022/02/12 08:38:17;;;;;;;10.40;4.00;;;;;;;1.23;70.23;100638.19;105899;1276;95936;-76
2022/02/12 08:40:45;;;;;;;11.80;4.60;;;;;;;1.28;69.91;100638.32;105935;1276;95202;-77
2022/02/12 08:43:14;;;;;;;11.90;4.50;;;;;;;1.34;69.84;100641.23;105807;1277;111386;-75
2022/02/12 08:45:42;;;;;;;9.80;3.60;;;;;;;1.38;69.43;100649.42;106828;1276;97688;-81
2022/02/12 08:48:13;;;;;;;7.80;3.20;;;;;;;1.33;69.05;100642.65;105914;1276;106733;-81
2022/02/12 08:50:41;;;;;;;10.60;3.60;;;;;;;1.25;68.56;100644.83;105967;1276;95931;-76
2022/02/12 08:53:12;;;;;;;9.40;3.60;;;;;;;1.12;68.48;100647.90;105925;1276;96388;-77
2022/02/12 08:55:40;;;;;;;12.10;3.50;;;;;;;1.02;68.19;100649.21;105863;1276;111516;-78
2022/02/12 08:58:14;;;;;;;;;;;;;;;0.94;68.80;100655.73;105851;1276;97878;-78
2022/02/12 09:00:42;;;;;;;9.20;2.90;;;;;;;0.97;69.00;100660.09;105743;1277;107565;-74
2022/02/12 09:03:15;;;;;;;10.00;3.10;;;;;;;1.14;69.04;100661.87;105905;1276;99185;-74
2022/02/12 09:05:43;;;;;;;10.40;3.50;;;;;;;1.35;69.49;100664.83;105902;1276;98599;-73
2022/02/12 09:08:14;;;;;;;8.00;3.00;;;;;;;1.61;69.38;100669.48;105857;1276;112080;-72
2022/02/12 09:10:43;;;;;;;10.30;3.40;;;;;;;1.94;69.71;100676.13;105841;1276;97900;-73
2022/02/12 09:13:11;;;;;;;8.70;3.40;;;;;;;2.31;69.81;100675.86;106449;1274;108319;-72
2022/02/12 09:15:39;;;;;;;13.70;4.20;;;;;;;2.58;69.44;100678.66;105965;1275;97865;-73
2022/02/12 09:18:12;;;;;;;13.60;3.60;;;;;;;2.86;69.27;100685.98;106135;1274;95867;-71
2022/02/12 09:20:40;;;;;;;6.60;2.70;;;;;;;3.20;69.78;100690.36;106042;1276;111385;-73
2022/02/12 09:23:09;;;;;;;14.20;3.80;;;;;;;3.54;69.48;100689.26;106016;1274;97896;-73
2022/02/12 09:25:36;;;;;;;12.10;3.40;;;;;;;3.92;69.69;100701.56;105968;1274;107658;-73
2022/02/12 09:28:04;;;;;;;11.10;3.70;;;;;;;4.33;69.81;100699.35;105976;1274;96997;-73
2022/02/12 09:30:32;;;;;;;9.90;3.20;;;;;;;4.64;69.62;100704.15;105979;1274;97929;-70
2022/02/12 09:33:02;;;;;;;8.90;3.10;;;;;;;4.84;69.12;100705.30;106081;1274;111620;-73
2022/02/12 09:35:53;;;;;;;9.60;3.10;;;;;;;5.19;69.38;100703.25;105940;1276;97964;-71
2022/02/12 09:38:48;;;;;;;9.10;2.90;;;;;;;5.69;69.56;100696.54;105896;1274;107821;-74
2022/02/12 09:41:23;;;;;;;8.90;3.10;;;;;;;6.40;69.62;100695.86;106018;1275;97856;-69
2022/02/12 09:43:58;;;;;;;12.40;3.40;;;;;;;7.07;69.50;100702.62;106058;1274;97855;-71
2022/02/12 09:46:39;;;;;;;8.90;3.00;;;;;;;7.37;69.16;100704.68;105967;1274;110368;-72
2022/02/12 09:49:08;;;;;;;9.10;3.20;;;;;;;7.21;68.54;100706.44;105908;1274;95271;-73
2022/02/12 09:51:40;;;;;;;12.50;3.60;;;;;;;7.02;67.76;100704.75;105881;1274;107760;-73
2022/02/12 09:54:09;;;;;;;13.00;4.70;;;;;;;7.11;68.74;100702.16;105920;1274;97945;-77
2022/02/12 09:56:40;;;;;;;11.10;3.60;;;;;;;7.26;68.84;100702.02;106014;1275;97889;-78
2022/02/12 09:59:10;;;;;;;17.70;5.30;;;;;;;7.27;68.70;100700.75;105877;1276;111272;-77
2022/02/12 10:01:39;;;;;;;13.00;4.90;;;;;;;7.13;68.11;100700.52;105978;1275;96266;-74
2022/02/12 10:04:21;;;;;;;14.50;4.60;;;;;;;6.90;67.83;100699.65;105862;1274;107882;-74
2022/02/12 10:06:49;;;;;;;16.90;4.30;;;;;;;6.78;68.22;100695.60;106738;1275;97892;-75
2022/02/12 10:09:17;;;;;;;10.90;2.90;;;;;;;6.80;68.47;100697.30;105952;1276;97875;-75
2022/02/12 10:11:54;;;;;;;12.00;3.60;;;;;;;6.75;68.18;100702.20;105937;1277;111424;-76
2022/02/12 10:14:26;;;;;;;12.20;3.80;;;;;;;6.62;68.21;100701.02;105970;1276;97889;-75
2022/02/12 10:17:06;;;;;;;14.40;4.00;;;;;;;6.47;68.17;100704.84;105950;1276;107761;-73
2022/02/12 10:19:43;;;;;;;9.80;2.90;;;;;;;6.32;67.33;100703.99;105866;1276;97960;-75
2022/02/12 10:22:17;;;;;;;8.60;2.60;;;;;;;6.12;67.03;100699.81;105954;1277;97850;-75
2022/02/12 10:24:53;;;;;;;6.40;2.70;;;;;;;5.94;66.86;100699.41;105952;1274;110491;-75
2022/02/12 10:27:30;;;;;;;9.00;2.90;;;;;;;5.70;65.81;100699.51;105892;1274;97893;-75
2022/02/12 10:30:03;;;;;;;10.60;3.40;;;;;;;5.43;67.01;100700.55;105822;1276;107138;-70
2022/02/12 10:32:31;;;;;;;10.00;3.00;;;;;;;5.43;67.30;100705.64;105867;1274;96308;-74
2022/02/12 10:35:08;;;;;;;10.60;3.00;;;;;;;5.42;66.41;100707.77;105837;1275;95350;-77
2022/02/12 10:37:45;;;;;;;9.40;3.10;;;;;;;5.20;66.95;100714.12;105898;1276;111513;-74
2022/02/12 10:40:14;;;;;;;10.40;3.10;;;;;;;5.18;67.05;100716.82;105963;1275;97897;-73
2022/02/12 10:42:46;;;;;;;8.60;3.10;;;;;;;5.18;67.04;100717.15;106093;1274;107819;-74
2022/02/12 10:45:18;;;;;;;8.50;3.20;;;;;;;5.16;66.90;100709.48;106084;1274;95826;-73
2022/02/12 10:47:50;;;;;;;7.80;2.90;;;;;;;5.19;66.27;100714.14;106256;1265;97991;-75
2022/02/12 10:50:25;;;;;;;8.60;3.00;;;;;;;5.03;65.81;100709.23;105927;1275;111301;-75
2022/02/12 10:52:56;;;;;;;10.20;2.90;;;;;;;4.72;65.07;100716.62;105992;1274;95303;-71
2022/02/12 10:55:35;;;;;;;8.70;3.10;;;;;;;4.60;66.12;100715.63;105956;1274;106542;-74
2022/02/12 10:58:07;;;;;;;6.40;2.80;;;;;;;4.59;66.36;100713.90;105994;1274;98119;-73
2022/02/12 11:00:37;;;;;;;9.80;2.90;;;;;;;4.66;66.45;100714.31;106014;1276;98139;-71
2022/02/12 11:03:11;;;;;;;12.80;3.70;;;;;;;4.70;66.19;100712.63;105955;1275;111376;-72
2022/02/12 11:05:51;;;;;;;11.20;3.50;;;;;;;4.68;65.98;100707.91;106103;1274;95919;-75
2022/02/12 11:08:27;;;;;;;7.80;2.80;;;;;;;4.65;66.09;100706.59;106104;1274;107622;-71
2022/02/12 11:10:55;;;;;;;8.30;3.10;;;;;;;4.72;66.11;100706.97;106044;1274;97980;-77
2022/02/12 11:13:23;;;;;;;10.50;3.80;;;;;;;4.68;65.96;100702.83;106037;1274;95280;-72
2022/02/12 11:15:51;;;;;;;14.90;3.90;;;;;;;4.64;65.90;100702.73;106004;1275;111389;-72
2022/02/12 11:18:25;;;;;;;10.90;3.10;;;;;;;4.64;65.89;100707.31;105984;1275;96894;-78
2022/02/12 11:20:56;;;;;;;8.60;3.00;;;;;;;4.63;65.01;100703.83;105974;1273;107520;-71
2022/02/12 11:23:28;;;;;;;9.40;2.80;;;;;;;4.52;65.78;100701.40;105963;1275;96571;-73
2022/02/12 11:26:04;;;;;;;9.50;3.00;;;;;;;4.46;65.86;100704.19;106034;1274;97967;-75
2022/02/12 11:28:35;;;;;;;10.80;3.70;;;;;;;4.48;64.40;100705.70;105971;1274;111137;-75
2022/02/12 11:31:22;;;;;;;11.80;3.40;;;;;;;4.40;64.84;100700.62;106012;1274;97998;-77
2022/02/12 11:34:15;;;;;;;9.10;3.50;;;;;;;4.43;65.51;100698.62;105981;1274;107486;-75
2022/02/12 11:36:48;;;;;;;10.90;3.30;;;;;;;4.56;65.51;100701.50;105972;1274;97877;-75
2022/02/12 11:39:30;;;;;;;6.80;2.20;;;;;;;4.69;65.00;100702.63;105933;1274;95923;-74